createdAt,value
2022-12-01T00:01:40.217Z,4.26
2022-12-01T00:04:07.762Z,4.29
2022-12-01T00:06:34.226Z,4.29
2022-12-01T00:09:00.627Z,4.28
2022-12-01T00:11:27.057Z,4.29
2022-12-01T00:13:53.489Z,4.26
2022-12-01T00:16:19.964Z,4.22
2022-12-01T00:18:49.638Z,4.20
2022-12-01T00:21:19.834Z,4.21
2022-12-01T00:23:47.053Z,4.17
2022-12-01T00:26:13.979Z,4.14
2022-12-01T00:28:40.400Z,4.14
2022-12-01T00:31:10.256Z,4.16
2022-12-01T00:33:36.555Z,4.15
2022-12-01T00:36:03.344Z,4.15
2022-12-01T00:38:29.775Z,4.16
2022-12-01T00:40:56.231Z,4.18
2022-12-01T00:43:22.627Z,4.20
2022-12-01T00:45:49.347Z,4.21
2022-12-01T00:48:16.201Z,4.25
2022-12-01T00:50:42.599Z,4.23
2022-12-01T00:53:08.983Z,4.19
2022-12-01T00:55:35.412Z,4.14
2022-12-01T00:58:01.803Z,4.16
2022-12-01T01:00:28.516Z,4.19
2022-12-01T01:02:55.323Z,4.18
2022-12-01T01:05:21.807Z,4.19
2022-12-01T01:07:48.297Z,4.21
2022-12-01T01:10:14.783Z,4.23
2022-12-01T01:12:41.173Z,4.21
2022-12-01T01:15:07.962Z,4.18
2022-12-01T01:17:34.377Z,4.19
2022-12-01T01:20:00.812Z,4.20
2022-12-01T01:22:27.235Z,4.19
2022-12-01T01:24:53.631Z,4.14
2022-12-01T01:27:20.066Z,4.13
2022-12-01T01:29:46.741Z,4.15
2022-12-01T01:32:13.292Z,4.15
2022-12-01T01:34:39.718Z,4.13
2022-12-01T01:37:06.121Z,4.18
2022-12-01T01:39:32.530Z,4.17
2022-12-01T01:41:58.902Z,4.17
2022-12-01T01:44:49.915Z,4.19
2022-12-01T01:47:18.022Z,4.15
2022-12-01T01:49:44.435Z,4.06
2022-12-01T01:52:10.849Z,4.14
2022-12-01T01:54:42.307Z,4.14
2022-12-01T01:57:09.340Z,4.12
2022-12-01T01:59:44.131Z,4.11
2022-12-01T02:02:11.427Z,4.10
2022-12-01T02:04:39.673Z,4.12
2022-12-01T02:07:06.847Z,4.11
2022-12-01T02:09:33.249Z,4.15
2022-12-01T02:12:24.979Z,4.11
2022-12-01T02:15:16.049Z,4.08
2022-12-01T02:17:42.343Z,4.12
2022-12-01T02:20:30.307Z,4.14
2022-12-01T02:23:08.502Z,4.19
2022-12-01T02:25:45.548Z,4.23
2022-12-01T02:28:42.930Z,4.26
2022-12-01T02:31:27.291Z,4.23
2022-12-01T02:34:08.324Z,4.20
2022-12-01T02:36:37.009Z,4.13
2022-12-01T02:39:14.972Z,4.08
2022-12-01T02:41:55.925Z,4.04
2022-12-01T02:44:30.094Z,4.00
2022-12-01T02:47:15.755Z,3.98
2022-12-01T02:49:45.059Z,4.01
2022-12-01T02:52:11.450Z,4.03
2022-12-01T02:54:37.863Z,4.06
2022-12-01T02:57:04.230Z,4.07
2022-12-01T02:59:30.678Z,4.02
2022-12-01T03:02:18.667Z,3.98
2022-12-01T03:05:09.886Z,3.98
2022-12-01T03:07:49.187Z,3.99
2022-12-01T03:10:23.730Z,3.97
2022-12-01T03:12:56.133Z,3.99
2022-12-01T03:15:51.805Z,4.01
2022-12-01T03:18:28.049Z,4.01
2022-12-01T03:21:02.175Z,3.98
2022-12-01T03:23:30.302Z,3.97
2022-12-01T03:25:56.766Z,3.96
2022-12-01T03:28:27.063Z,4.00
2022-12-01T03:30:53.509Z,4.00
2022-12-01T03:33:44.685Z,4.04
2022-12-01T03:36:20.959Z,4.04
2022-12-01T03:38:50.690Z,4.04
2022-12-01T03:41:19.207Z,4.05
2022-12-01T03:43:51.334Z,4.05
2022-12-01T03:46:25.271Z,4.06
2022-12-01T03:48:51.699Z,4.06
2022-12-01T03:51:25.682Z,4.06
2022-12-01T03:54:07.741Z,4.06
2022-12-01T03:56:37.631Z,4.09
2022-12-01T03:59:04.256Z,4.06
2022-12-01T04:01:31.751Z,4.07
2022-12-01T04:04:08.555Z,4.04
2022-12-01T04:06:35.019Z,3.99
2022-12-01T04:09:01.475Z,3.98
2022-12-01T04:11:32.466Z,4.00
2022-12-01T04:13:59.363Z,3.97
2022-12-01T04:16:25.787Z,3.92
2022-12-01T04:18:52.223Z,3.92
2022-12-01T04:21:18.610Z,3.91
2022-12-01T04:23:45.019Z,3.92
2022-12-01T04:26:15.788Z,3.87
2022-12-01T04:28:42.483Z,3.89
2022-12-01T04:31:08.959Z,3.87
2022-12-01T04:33:35.406Z,3.83
2022-12-01T04:36:01.909Z,3.80
2022-12-01T04:38:30.870Z,3.78
2022-12-01T04:40:57.630Z,3.79
2022-12-01T04:43:24.053Z,3.80
2022-12-01T04:45:50.422Z,3.81
2022-12-01T04:48:16.852Z,3.82
2022-12-01T04:50:43.236Z,3.84
2022-12-01T04:53:09.672Z,3.86
2022-12-01T04:55:38.853Z,3.85
2022-12-01T04:58:05.460Z,3.88
2022-12-01T05:00:32.230Z,3.85
2022-12-01T05:02:59.155Z,3.85
2022-12-01T05:05:25.574Z,3.84
2022-12-01T05:07:52.017Z,3.84
2022-12-01T05:10:18.502Z,3.87
2022-12-01T05:12:45.621Z,3.84
2022-12-01T05:15:12.609Z,3.87
2022-12-01T05:17:39.008Z,3.84
2022-12-01T05:20:06.102Z,3.84
2022-12-01T05:23:03.859Z,3.79
2022-12-01T05:25:19.197Z,3.78
2022-12-01T05:27:45.594Z,3.80
2022-12-01T05:30:12.156Z,3.79
2022-12-01T05:32:38.528Z,3.83
2022-12-01T05:35:05.369Z,3.81
2022-12-01T05:37:31.783Z,3.81
2022-12-01T05:39:58.179Z,3.82
2022-12-01T05:42:24.575Z,3.79
2022-12-01T05:44:50.983Z,3.80
2022-12-01T05:47:17.504Z,3.85
2022-12-01T05:49:43.918Z,3.85
2022-12-01T05:52:10.375Z,3.85
2022-12-01T05:54:36.788Z,3.86
2022-12-01T05:57:03.284Z,3.88
2022-12-01T05:59:29.710Z,3.87
2022-12-01T06:01:56.198Z,3.89
2022-12-01T06:04:22.788Z,3.81
2022-12-01T06:06:49.353Z,3.83
2022-12-01T06:09:15.821Z,3.82
2022-12-01T06:11:42.366Z,3.82
2022-12-01T06:14:08.774Z,3.87
2022-12-01T06:16:35.435Z,3.87
2022-12-01T06:19:01.898Z,3.84
2022-12-01T06:21:28.322Z,3.85
2022-12-01T06:23:54.737Z,3.84
2022-12-01T06:26:21.157Z,3.85
2022-12-01T06:28:47.540Z,3.87
2022-12-01T06:31:14.008Z,3.87
2022-12-01T06:33:40.441Z,3.90
2022-12-01T06:36:07.277Z,3.89
2022-12-01T06:38:34.655Z,3.84
2022-12-01T06:41:01.344Z,3.85
2022-12-01T06:43:27.803Z,3.83
2022-12-01T06:46:00.880Z,3.87
2022-12-01T06:48:28.252Z,3.89
2022-12-01T06:50:59.888Z,3.85
2022-12-01T06:53:26.295Z,3.80
2022-12-01T06:55:52.795Z,3.76
2022-12-01T06:58:19.278Z,3.76
2022-12-01T07:00:51.778Z,3.77
2022-12-01T07:03:18.614Z,3.80
2022-12-01T07:05:45.007Z,3.82
2022-12-01T07:08:11.451Z,3.80
2022-12-01T07:10:37.898Z,3.80
2022-12-01T07:13:04.319Z,3.87
2022-12-01T07:15:30.758Z,3.90
2022-12-01T07:17:57.154Z,3.85
2022-12-01T07:20:23.563Z,3.83
2022-12-01T07:22:49.979Z,3.82
2022-12-01T07:25:16.450Z,3.87
2022-12-01T07:27:45.655Z,3.89
2022-12-01T07:30:12.535Z,3.88
2022-12-01T07:32:41.017Z,3.90
2022-12-01T07:35:10.511Z,3.92
2022-12-01T07:37:39.406Z,3.89
2022-12-01T07:40:06.585Z,3.98
2022-12-01T07:42:32.982Z,3.98
2022-12-01T07:44:59.413Z,3.97
2022-12-01T07:47:26.948Z,3.91
2022-12-01T07:49:53.355Z,3.90
2022-12-01T07:52:19.773Z,3.90
2022-12-01T07:54:46.207Z,3.91
2022-12-01T07:57:12.719Z,3.92
2022-12-01T07:59:39.123Z,3.96
2022-12-01T08:02:05.874Z,4.01
2022-12-01T08:04:32.342Z,3.97
2022-12-01T08:07:00.827Z,3.89
2022-12-01T08:09:27.234Z,3.99
2022-12-01T08:11:53.660Z,3.95
2022-12-01T08:14:20.122Z,3.91
2022-12-01T08:16:48.350Z,3.96
2022-12-01T08:19:14.929Z,3.93
2022-12-01T08:21:41.399Z,3.97
2022-12-01T08:24:08.011Z,3.97
2022-12-01T08:26:34.409Z,3.96
2022-12-01T08:29:02.189Z,3.94
2022-12-01T08:31:30.761Z,3.93
2022-12-01T08:33:57.319Z,4.00
2022-12-01T08:36:23.948Z,4.07
2022-12-01T08:38:54.281Z,4.04
2022-12-01T08:41:20.822Z,4.04
2022-12-01T08:43:57.828Z,4.05
2022-12-01T08:46:31.562Z,4.00
2022-12-01T08:48:58.359Z,4.06
2022-12-01T08:51:25.410Z,4.05
2022-12-01T08:53:51.835Z,4.09
2022-12-01T08:56:23.558Z,4.11
2022-12-01T08:58:53.318Z,4.11
2022-12-01T09:01:20.074Z,4.11
2022-12-01T09:03:46.690Z,4.04
2022-12-01T09:06:19.144Z,4.04
2022-12-01T09:08:45.742Z,3.98
2022-12-01T09:11:18.264Z,4.02
2022-12-01T09:13:48.619Z,4.03
2022-12-01T09:16:18.134Z,4.11
2022-12-01T09:18:45.350Z,4.11
2022-12-01T09:21:15.611Z,4.14
2022-12-01T09:23:46.499Z,4.11
2022-12-01T09:26:13.989Z,4.14
2022-12-01T09:28:43.725Z,4.07
2022-12-01T09:31:11.142Z,4.06
2022-12-01T09:33:37.698Z,4.09
2022-12-01T09:36:04.680Z,4.09
2022-12-01T09:38:32.192Z,4.10
2022-12-01T09:41:04.590Z,4.13
2022-12-01T09:43:38.720Z,4.18
2022-12-01T09:46:06.060Z,4.24
2022-12-01T09:48:44.422Z,4.18
2022-12-01T09:51:15.343Z,4.18
2022-12-01T09:53:42.141Z,4.15
2022-12-01T09:56:22.439Z,4.17
2022-12-01T09:59:02.629Z,4.13
2022-12-01T10:01:39.231Z,4.07
2022-12-01T10:04:11.882Z,4.13
2022-12-01T10:06:44.371Z,4.07
2022-12-01T10:09:27.238Z,4.13
2022-12-01T10:11:56.234Z,4.14
2022-12-01T10:14:22.761Z,4.10
2022-12-01T10:16:55.747Z,4.00
2022-12-01T10:19:26.703Z,3.96
2022-12-01T10:21:52.983Z,3.96
2022-12-01T10:24:40.693Z,3.93
2022-12-01T10:27:17.270Z,3.90
2022-12-01T10:29:50.077Z,3.90
2022-12-01T10:32:21.343Z,3.85
2022-12-01T10:34:47.891Z,3.87
2022-12-01T10:37:20.023Z,3.91
2022-12-01T10:39:48.044Z,3.92
2022-12-01T10:42:26.310Z,3.87
2022-12-01T10:44:53.587Z,3.88
2022-12-01T10:47:22.166Z,3.92
2022-12-01T10:49:48.999Z,3.86
2022-12-01T10:52:29.656Z,3.83
2022-12-01T10:54:56.076Z,3.87
2022-12-01T10:57:22.482Z,3.85
2022-12-01T10:59:55.689Z,3.82
2022-12-01T11:02:23.290Z,3.83
2022-12-01T11:05:07.767Z,3.83
2022-12-01T11:07:41.339Z,3.88
2022-12-01T11:10:23.013Z,3.88
2022-12-01T11:12:58.910Z,3.83
2022-12-01T11:15:26.692Z,3.74
2022-12-01T11:18:00.076Z,3.67
2022-12-01T11:20:26.492Z,3.66
2022-12-01T11:22:53.568Z,3.66
2022-12-01T11:25:21.225Z,3.66
2022-12-01T11:27:53.745Z,3.61
2022-12-01T11:30:24.807Z,3.59
2022-12-01T11:33:02.338Z,3.51
2022-12-01T11:35:31.029Z,3.50
2022-12-01T11:40:48.605Z,3.56
2022-12-01T11:43:35.960Z,3.54
2022-12-01T11:46:06.893Z,3.53
2022-12-01T11:48:34.207Z,3.53
2022-12-01T11:51:01.840Z,3.53
2022-12-01T11:53:31.952Z,3.49
2022-12-01T11:56:28.068Z,3.49
2022-12-01T11:59:00.704Z,3.48
2022-12-01T12:02:04.129Z,3.44
2022-12-01T12:04:48.484Z,3.42
2022-12-01T12:07:30.040Z,3.39
2022-12-01T12:10:11.519Z,3.44
2022-12-01T12:13:06.102Z,3.49
2022-12-01T12:16:05.583Z,3.42
2022-12-01T12:18:47.260Z,3.41
2022-12-01T12:21:34.949Z,3.39
2022-12-01T12:24:16.497Z,3.40
2022-12-01T12:27:07.169Z,3.43
2022-12-01T12:29:52.281Z,3.40
2022-12-01T12:32:48.075Z,3.36
2022-12-01T12:35:42.319Z,3.29
2022-12-01T12:38:23.615Z,3.29
2022-12-01T12:40:57.611Z,3.30
2022-12-01T12:43:39.130Z,3.23
2022-12-01T12:46:10.800Z,3.15
2022-12-01T12:49:03.888Z,3.17
2022-12-01T12:51:46.416Z,3.19
2022-12-01T12:54:12.758Z,3.11
2022-12-01T12:56:40.938Z,3.12
2022-12-01T12:59:09.838Z,3.17
2022-12-01T13:01:44.585Z,3.22
2022-12-01T13:04:17.315Z,3.26
2022-12-01T13:07:00.452Z,3.25
2022-12-01T13:09:31.564Z,3.16
2022-12-01T13:12:13.172Z,3.14
2022-12-01T13:14:42.730Z,3.19
2022-12-01T13:17:41.262Z,3.19
2022-12-01T13:20:16.860Z,3.10
2022-12-01T13:22:43.311Z,3.05
2022-12-01T13:25:21.739Z,3.04
2022-12-01T13:27:48.160Z,3.08
2022-12-01T13:30:22.961Z,3.11
2022-12-01T13:32:49.465Z,3.10
2022-12-01T13:35:26.609Z,3.06
2022-12-01T13:37:53.173Z,3.07
2022-12-01T13:40:24.229Z,3.04
2022-12-01T13:43:10.538Z,3.10
2022-12-01T13:45:38.035Z,3.08
2022-12-01T13:48:05.274Z,3.07
2022-12-01T13:50:40.712Z,3.03
2022-12-01T13:53:20.218Z,3.04
2022-12-01T13:56:27.045Z,3.06
2022-12-01T13:58:53.952Z,3.07
2022-12-01T14:01:20.570Z,3.04
2022-12-01T14:04:02.688Z,2.98
2022-12-01T14:06:41.212Z,2.96
2022-12-01T14:09:27.601Z,2.94
2022-12-01T14:11:58.506Z,2.94
2022-12-01T14:14:26.310Z,2.91
2022-12-01T14:16:57.616Z,2.95
2022-12-01T14:19:41.770Z,2.89
2022-12-01T14:22:30.754Z,2.91
2022-12-01T14:24:57.171Z,2.89
2022-12-01T14:27:33.518Z,2.90
2022-12-01T14:30:34.620Z,2.96
2022-12-01T14:33:38.567Z,2.94
2022-12-01T14:36:17.329Z,2.85
2022-12-01T14:38:44.183Z,2.96
2022-12-01T14:41:10.615Z,2.92
2022-12-01T14:43:38.074Z,2.90
2022-12-01T14:46:08.684Z,2.88
2022-12-01T14:48:39.313Z,2.83
2022-12-01T14:51:19.677Z,2.77
2022-12-01T14:53:46.628Z,2.74
2022-12-01T14:56:14.829Z,2.77
2022-12-01T14:58:54.312Z,2.82
2022-12-01T15:01:20.863Z,2.78
2022-12-01T15:03:49.035Z,2.79
2022-12-01T15:06:20.206Z,2.79
2022-12-01T15:09:04.094Z,2.84
2022-12-01T15:11:33.308Z,2.85
2022-12-01T15:13:59.702Z,2.78
2022-12-01T15:16:29.143Z,2.73
2022-12-01T15:18:55.836Z,2.80
2022-12-01T15:21:24.779Z,2.81
2022-12-01T15:24:05.293Z,2.82
2022-12-01T15:26:34.059Z,2.82
2022-12-01T15:29:24.022Z,2.85
2022-12-01T15:31:53.007Z,2.79
2022-12-01T15:34:21.827Z,2.79
2022-12-01T15:36:48.262Z,2.75
2022-12-01T15:39:20.748Z,2.84
2022-12-01T15:41:48.353Z,2.89
2022-12-01T15:44:20.166Z,2.87
2022-12-01T15:46:50.593Z,2.91
2022-12-01T15:49:35.156Z,2.81
2022-12-01T15:52:19.806Z,2.78
2022-12-01T15:54:47.805Z,2.81
2022-12-01T15:57:18.971Z,2.81
2022-12-01T15:59:46.305Z,2.82
2022-12-01T16:02:28.162Z,2.81
2022-12-01T16:05:09.857Z,2.78
2022-12-01T16:08:11.595Z,2.75
2022-12-01T16:10:34.006Z,2.84
2022-12-01T16:13:39.845Z,2.93
2022-12-01T16:16:30.181Z,2.92
2022-12-01T16:19:20.594Z,2.86
2022-12-01T16:21:50.835Z,2.84
2022-12-01T16:24:38.362Z,2.87
2022-12-01T16:27:25.874Z,2.85
2022-12-01T16:30:03.420Z,2.85
2022-12-01T16:32:37.523Z,2.93
2022-12-01T16:35:19.508Z,2.99
2022-12-01T16:37:45.911Z,2.89
2022-12-01T16:40:13.310Z,2.87
2022-12-01T16:42:39.715Z,2.82
2022-12-01T16:45:06.578Z,2.78
2022-12-01T16:47:32.986Z,2.77
2022-12-01T16:49:59.451Z,2.82
2022-12-01T16:55:36.406Z,2.81
2022-12-01T16:58:02.802Z,2.80
2022-12-01T17:00:29.375Z,2.79
2022-12-01T17:02:55.898Z,2.77
2022-12-01T17:05:22.389Z,2.80
2022-12-01T17:07:48.847Z,2.75
2022-12-01T17:10:15.426Z,2.73
2022-12-01T17:12:41.832Z,2.74
2022-12-01T17:15:08.625Z,2.69
2022-12-01T17:17:35.039Z,2.63
2022-12-01T17:20:01.811Z,2.68
2022-12-01T17:22:28.307Z,2.67
2022-12-01T17:24:56.056Z,2.72
2022-12-01T17:27:23.245Z,2.76
2022-12-01T17:29:49.642Z,2.70
2022-12-01T17:32:16.070Z,2.64
2022-12-01T17:34:42.485Z,2.65
2022-12-01T17:37:08.942Z,2.64
2022-12-01T17:39:37.471Z,2.64
2022-12-01T17:42:05.057Z,2.55
2022-12-01T17:44:31.474Z,2.60
2022-12-01T17:46:57.875Z,2.61
2022-12-01T17:49:24.314Z,2.63
2022-12-01T17:51:50.753Z,2.62
2022-12-01T17:54:17.219Z,2.66
2022-12-01T17:56:43.628Z,2.66
2022-12-01T17:59:10.052Z,2.63
2022-12-01T18:01:36.666Z,2.63
2022-12-01T18:04:03.590Z,2.68
2022-12-01T18:06:29.994Z,2.73
2022-12-01T18:08:56.391Z,2.76
2022-12-01T18:11:22.906Z,2.73
2022-12-01T18:13:49.911Z,2.75
2022-12-01T18:16:18.305Z,2.81
2022-12-01T18:18:44.738Z,2.77
2022-12-01T18:21:12.826Z,2.73
2022-12-01T18:23:39.276Z,2.73
2022-12-01T18:26:12.160Z,2.75
2022-12-01T18:28:41.738Z,2.73
2022-12-01T18:31:14.055Z,2.66
2022-12-01T18:33:41.338Z,2.63
2022-12-01T18:36:19.275Z,2.61
2022-12-01T18:38:45.867Z,2.60
2022-12-01T18:41:12.282Z,2.54
2022-12-01T18:43:38.715Z,2.52
2022-12-01T18:46:05.718Z,2.49
2022-12-01T18:48:32.543Z,2.48
2022-12-01T18:51:05.897Z,2.48
2022-12-01T18:53:32.439Z,2.48
2022-12-01T18:56:06.198Z,2.51
2022-12-01T18:58:32.698Z,2.55
2022-12-01T19:00:59.681Z,2.60
2022-12-01T19:03:31.367Z,2.61
2022-12-01T19:05:58.070Z,2.54
2022-12-01T19:08:24.742Z,2.50
2022-12-01T19:11:02.622Z,2.52
2022-12-01T19:13:29.787Z,2.47
2022-12-01T19:15:57.431Z,2.44
2022-12-01T19:18:23.884Z,2.47
2022-12-01T19:20:50.388Z,2.46
2022-12-01T19:23:16.914Z,2.50
2022-12-01T19:25:49.887Z,2.51
2022-12-01T19:28:16.304Z,2.49
2022-12-01T19:30:47.956Z,2.47
2022-12-01T19:33:14.995Z,2.46
2022-12-01T19:35:41.737Z,2.45
2022-12-01T19:38:08.185Z,2.46
2022-12-01T19:40:37.047Z,2.45
2022-12-01T19:43:03.517Z,2.46
2022-12-01T19:45:30.131Z,2.46
2022-12-01T19:47:58.971Z,2.50
2022-12-01T19:50:25.406Z,2.54
2022-12-01T19:52:51.798Z,2.59
2022-12-01T19:55:18.251Z,2.62
2022-12-01T19:57:44.666Z,2.69
2022-12-01T20:00:11.744Z,2.70
2022-12-01T20:02:39.334Z,2.69
2022-12-01T20:05:06.256Z,2.73
2022-12-01T20:07:32.878Z,2.82
2022-12-01T20:09:59.342Z,2.73
2022-12-01T20:12:33.689Z,2.64
2022-12-01T20:15:00.473Z,2.60
2022-12-01T20:17:27.638Z,2.42
2022-12-01T20:19:54.057Z,2.50
2022-12-01T20:22:22.822Z,2.45
2022-12-01T20:24:49.426Z,2.50
2022-12-01T20:27:16.070Z,2.49
2022-12-01T20:29:43.489Z,2.45
2022-12-01T20:32:09.989Z,2.39
2022-12-01T20:34:36.533Z,2.39
2022-12-01T20:37:03.032Z,2.36
2022-12-01T20:39:30.564Z,2.39
2022-12-01T20:41:58.602Z,2.30
2022-12-01T20:44:25.019Z,2.29
2022-12-01T20:46:51.516Z,2.29
2022-12-01T20:49:18.177Z,2.27
2022-12-01T20:51:44.774Z,2.24
2022-12-01T20:54:29.117Z,2.22
2022-12-01T20:56:56.119Z,2.23
2022-12-01T20:59:23.099Z,2.20
2022-12-01T21:01:49.638Z,2.24
2022-12-01T21:04:16.036Z,2.25
2022-12-01T21:06:42.462Z,2.27
2022-12-01T21:09:08.857Z,2.31
2022-12-01T21:11:43.516Z,2.33
2022-12-01T21:14:38.378Z,2.36
2022-12-01T21:17:32.555Z,2.29
2022-12-01T21:20:09.940Z,2.27
2022-12-01T21:22:36.475Z,2.26
2022-12-01T21:25:10.295Z,2.27
2022-12-01T21:27:36.737Z,2.26
2022-12-01T21:30:07.413Z,2.30
2022-12-01T21:32:34.351Z,2.30
2022-12-01T21:35:03.402Z,2.35
2022-12-01T21:37:29.826Z,2.38
2022-12-01T21:40:00.775Z,2.36
2022-12-01T21:42:27.952Z,2.36
2022-12-01T21:44:55.542Z,2.40
2022-12-01T21:47:23.905Z,2.40
2022-12-01T21:49:52.703Z,2.40
2022-12-01T21:52:21.360Z,2.43
2022-12-01T21:54:47.968Z,2.44
2022-12-01T21:57:23.664Z,2.48
2022-12-01T21:59:50.635Z,2.43
2022-12-01T22:02:50.292Z,2.39
2022-12-01T22:05:33.610Z,2.32
2022-12-01T22:08:24.287Z,2.28
2022-12-01T22:11:02.890Z,2.20
2022-12-01T22:14:00.435Z,2.15
2022-12-01T22:16:34.210Z,2.12
2022-12-01T22:19:21.229Z,2.09
2022-12-01T22:22:06.357Z,2.01
2022-12-01T22:24:40.460Z,1.90
2022-12-01T22:27:28.310Z,1.94
2022-12-01T22:30:00.702Z,1.98
2022-12-01T22:32:30.062Z,1.98
2022-12-01T22:34:57.915Z,1.95
2022-12-01T22:37:29.186Z,2.03
2022-12-01T22:39:56.003Z,2.00
2022-12-01T22:42:30.030Z,2.00
2022-12-01T22:44:59.539Z,2.00
2022-12-01T22:47:27.303Z,2.00
2022-12-01T22:49:53.779Z,1.95
2022-12-01T22:52:27.768Z,1.97
2022-12-01T22:54:54.174Z,2.00
2022-12-01T22:57:28.825Z,2.06
2022-12-01T22:59:55.225Z,2.14
2022-12-01T23:02:25.174Z,2.08
2022-12-01T23:04:55.927Z,2.06
2022-12-01T23:07:35.867Z,2.06
2022-12-01T23:10:22.495Z,2.02
2022-12-01T23:12:50.649Z,1.98
2022-12-01T23:15:22.261Z,1.98
2022-12-01T23:17:49.030Z,2.00
2022-12-01T23:20:24.363Z,2.03
2022-12-01T23:22:53.790Z,1.98
2022-12-01T23:25:20.261Z,2.01
2022-12-01T23:27:47.914Z,2.01
2022-12-01T23:30:15.064Z,1.93
2022-12-01T23:32:41.651Z,1.81
2022-12-01T23:35:13.255Z,1.88
2022-12-01T23:37:40.852Z,1.88
2022-12-01T23:40:32.430Z,1.83
2022-12-01T23:43:20.983Z,1.79
2022-12-01T23:45:48.234Z,1.81
2022-12-01T23:48:20.257Z,1.77
2022-12-01T23:50:47.765Z,1.70
2022-12-01T23:53:25.612Z,1.69
2022-12-01T23:55:52.051Z,1.76
2022-12-01T23:58:18.609Z,1.73
